sensor_id;sensor_type;location;lat;lon;timestamp;P1;durP1;ratioP1;P2;durP2;ratioP2
12660;SDS011;39039;51.802;5.710;2023-03-12T00:02:10;19.47;;;17.80;;
12660;SDS011;39039;51.802;5.710;2023-03-12T00:04:37;22.53;;;20.60;;
12660;SDS011;39039;51.802;5.710;2023-03-12T00:07:04;31.23;;;29.17;;
12660;SDS011;39039;51.802;5.710;2023-03-12T00:09:33;31.43;;;29.03;;
12660;SDS011;39039;51.802;5.710;2023-03-12T00:12:02;38.50;;;36.03;;
12660;SDS011;39039;51.802;5.710;2023-03-12T00:14:29;30.63;;;28.57;;
12660;SDS011;39039;51.802;5.710;2023-03-12T00:16:56;34.57;;;31.80;;
12660;SDS011;39039;51.802;5.710;2023-03-12T00:19:23;34.90;;;32.30;;
12660;SDS011;39039;51.802;5.710;2023-03-12T00:21:50;36.27;;;33.77;;
12660;SDS011;39039;51.802;5.710;2023-03-12T00:24:17;38.03;;;35.73;;
12660;SDS011;39039;51.802;5.710;2023-03-12T00:26:44;42.13;;;39.33;;
12660;SDS011;39039;51.802;5.710;2023-03-12T00:29:13;39.87;;;37.47;;
12660;SDS011;39039;51.802;5.710;2023-03-12T00:31:40;43.37;;;40.67;;
12660;SDS011;39039;51.802;5.710;2023-03-12T00:34:08;42.53;;;39.87;;
12660;SDS011;39039;51.802;5.710;2023-03-12T00:36:35;44.27;;;41.57;;
12660;SDS011;39039;51.802;5.710;2023-03-12T00:39:04;39.43;;;37.17;;
12660;SDS011;39039;51.802;5.710;2023-03-12T00:41:31;33.90;;;31.77;;
12660;SDS011;39039;51.802;5.710;2023-03-12T00:43:58;35.97;;;33.67;;
12660;SDS011;39039;51.802;5.710;2023-03-12T00:46:27;40.10;;;37.47;;
12660;SDS011;39039;51.802;5.710;2023-03-12T00:48:54;39.93;;;37.43;;
12660;SDS011;39039;51.802;5.710;2023-03-12T00:51:21;29.13;;;27.27;;
12660;SDS011;39039;51.802;5.710;2023-03-12T00:53:48;28.43;;;26.73;;
12660;SDS011;39039;51.802;5.710;2023-03-12T00:56:15;40.03;;;37.60;;
12660;SDS011;39039;51.802;5.710;2023-03-12T00:58:42;25.43;;;23.40;;
12660;SDS011;39039;51.802;5.710;2023-03-12T01:01:10;20.43;;;18.67;;
12660;SDS011;39039;51.802;5.710;2023-03-12T01:03:38;26.23;;;24.43;;
12660;SDS011;39039;51.802;5.710;2023-03-12T01:06:05;27.37;;;25.40;;
12660;SDS011;39039;51.802;5.710;2023-03-12T01:08:33;38.50;;;36.10;;
12660;SDS011;39039;51.802;5.710;2023-03-12T01:11:00;39.23;;;36.80;;
12660;SDS011;39039;51.802;5.710;2023-03-12T01:13:27;40.50;;;37.83;;
12660;SDS011;39039;51.802;5.710;2023-03-12T01:15:54;39.10;;;36.67;;
12660;SDS011;39039;51.802;5.710;2023-03-12T01:18:21;34.67;;;32.17;;
12660;SDS011;39039;51.802;5.710;2023-03-12T01:20:50;32.13;;;30.00;;
12660;SDS011;39039;51.802;5.710;2023-03-12T01:23:17;34.17;;;32.03;;
12660;SDS011;39039;51.802;5.710;2023-03-12T01:25:44;37.97;;;35.70;;
12660;SDS011;39039;51.802;5.710;2023-03-12T01:28:11;33.73;;;31.47;;
12660;SDS011;39039;51.802;5.710;2023-03-12T01:30:38;36.87;;;34.57;;
12660;SDS011;39039;51.802;5.710;2023-03-12T01:33:05;36.23;;;34.10;;
12660;SDS011;39039;51.802;5.710;2023-03-12T01:35:34;31.00;;;29.13;;
12660;SDS011;39039;51.802;5.710;2023-03-12T01:38:02;34.73;;;32.03;;
12660;SDS011;39039;51.802;5.710;2023-03-12T01:40:31;42.07;;;39.43;;
12660;SDS011;39039;51.802;5.710;2023-03-12T01:43:13;36.47;;;33.97;;
12660;SDS011;39039;51.802;5.710;2023-03-12T01:46:06;38.80;;;36.00;;
12660;SDS011;39039;51.802;5.710;2023-03-12T01:48:35;36.10;;;33.57;;
12660;SDS011;39039;51.802;5.710;2023-03-12T01:51:03;30.27;;;28.20;;
12660;SDS011;39039;51.802;5.710;2023-03-12T01:53:32;29.60;;;27.53;;
12660;SDS011;39039;51.802;5.710;2023-03-12T01:55:59;19.63;;;18.43;;
12660;SDS011;39039;51.802;5.710;2023-03-12T01:58:27;36.10;;;33.93;;
12660;SDS011;39039;51.802;5.710;2023-03-12T02:00:57;28.70;;;26.93;;
12660;SDS011;39039;51.802;5.710;2023-03-12T02:03:25;38.60;;;36.43;;
12660;SDS011;39039;51.802;5.710;2023-03-12T02:05:53;32.77;;;30.93;;
12660;SDS011;39039;51.802;5.710;2023-03-12T02:08:21;27.90;;;26.10;;
12660;SDS011;39039;51.802;5.710;2023-03-12T02:10:50;28.07;;;26.10;;
12660;SDS011;39039;51.802;5.710;2023-03-12T02:13:17;23.67;;;22.00;;
12660;SDS011;39039;51.802;5.710;2023-03-12T02:15:44;21.63;;;19.90;;
12660;SDS011;39039;51.802;5.710;2023-03-12T02:18:13;24.87;;;23.47;;
12660;SDS011;39039;51.802;5.710;2023-03-12T02:20:44;22.43;;;20.83;;
12660;SDS011;39039;51.802;5.710;2023-03-12T02:23:16;20.60;;;18.97;;
12660;SDS011;39039;51.802;5.710;2023-03-12T02:25:51;31.53;;;29.23;;
12660;SDS011;39039;51.802;5.710;2023-03-12T02:28:20;29.07;;;27.17;;
12660;SDS011;39039;51.802;5.710;2023-03-12T02:30:49;20.97;;;19.47;;
12660;SDS011;39039;51.802;5.710;2023-03-12T02:33:17;19.90;;;18.37;;
12660;SDS011;39039;51.802;5.710;2023-03-12T02:35:44;16.43;;;15.13;;
12660;SDS011;39039;51.802;5.710;2023-03-12T02:41:11;18.70;;;17.47;;
12660;SDS011;39039;51.802;5.710;2023-03-12T02:43:39;22.83;;;21.20;;
12660;SDS011;39039;51.802;5.710;2023-03-12T02:46:07;17.73;;;16.03;;
12660;SDS011;39039;51.802;5.710;2023-03-12T02:48:35;15.93;;;14.57;;
12660;SDS011;39039;51.802;5.710;2023-03-12T02:51:02;15.77;;;14.37;;
12660;SDS011;39039;51.802;5.710;2023-03-12T02:53:29;15.67;;;14.33;;
12660;SDS011;39039;51.802;5.710;2023-03-12T02:55:56;14.80;;;13.63;;
12660;SDS011;39039;51.802;5.710;2023-03-12T02:58:25;15.87;;;14.83;;
12660;SDS011;39039;51.802;5.710;2023-03-12T03:00:52;15.73;;;14.57;;
12660;SDS011;39039;51.802;5.710;2023-03-12T03:03:19;18.17;;;16.87;;
12660;SDS011;39039;51.802;5.710;2023-03-12T03:05:46;19.13;;;17.87;;
12660;SDS011;39039;51.802;5.710;2023-03-12T03:08:13;17.37;;;16.07;;
12660;SDS011;39039;51.802;5.710;2023-03-12T03:10:40;14.43;;;13.23;;
12660;SDS011;39039;51.802;5.710;2023-03-12T03:13:07;15.87;;;14.77;;
12660;SDS011;39039;51.802;5.710;2023-03-12T03:15:36;15.30;;;14.10;;
12660;SDS011;39039;51.802;5.710;2023-03-12T03:18:04;16.57;;;15.10;;
12660;SDS011;39039;51.802;5.710;2023-03-12T03:20:31;16.57;;;15.23;;
12660;SDS011;39039;51.802;5.710;2023-03-12T03:22:58;16.77;;;15.50;;
12660;SDS011;39039;51.802;5.710;2023-03-12T03:25:25;18.63;;;17.27;;
12660;SDS011;39039;51.802;5.710;2023-03-12T03:27:53;14.90;;;13.57;;
12660;SDS011;39039;51.802;5.710;2023-03-12T03:30:20;20.33;;;18.70;;
12660;SDS011;39039;51.802;5.710;2023-03-12T03:32:49;17.83;;;16.00;;
12660;SDS011;39039;51.802;5.710;2023-03-12T03:35:16;22.73;;;21.20;;
12660;SDS011;39039;51.802;5.710;2023-03-12T03:37:43;24.80;;;22.93;;
12660;SDS011;39039;51.802;5.710;2023-03-12T03:40:12;20.13;;;18.67;;
12660;SDS011;39039;51.802;5.710;2023-03-12T03:42:39;19.80;;;18.37;;
12660;SDS011;39039;51.802;5.710;2023-03-12T03:45:07;23.00;;;21.20;;
12660;SDS011;39039;51.802;5.710;2023-03-12T03:47:34;20.67;;;19.07;;
12660;SDS011;39039;51.802;5.710;2023-03-12T03:50:04;24.47;;;22.83;;
12660;SDS011;39039;51.802;5.710;2023-03-12T03:52:31;25.03;;;23.13;;
12660;SDS011;39039;51.802;5.710;2023-03-12T03:54:58;23.27;;;21.67;;
12660;SDS011;39039;51.802;5.710;2023-03-12T03:57:26;21.53;;;19.87;;
12660;SDS011;39039;51.802;5.710;2023-03-12T03:59:53;20.37;;;18.30;;
12660;SDS011;39039;51.802;5.710;2023-03-12T04:02:20;19.07;;;17.60;;
12660;SDS011;39039;51.802;5.710;2023-03-12T04:04:47;17.93;;;16.40;;
12660;SDS011;39039;51.802;5.710;2023-03-12T04:07:16;16.23;;;14.77;;
12660;SDS011;39039;51.802;5.710;2023-03-12T04:09:45;16.60;;;15.10;;
12660;SDS011;39039;51.802;5.710;2023-03-12T04:12:12;18.17;;;16.43;;
12660;SDS011;39039;51.802;5.710;2023-03-12T04:14:39;18.57;;;16.93;;
12660;SDS011;39039;51.802;5.710;2023-03-12T04:17:07;17.77;;;16.30;;
12660;SDS011;39039;51.802;5.710;2023-03-12T04:19:34;17.50;;;16.07;;
12660;SDS011;39039;51.802;5.710;2023-03-12T04:22:02;16.57;;;15.07;;
12660;SDS011;39039;51.802;5.710;2023-03-12T04:24:31;16.90;;;15.47;;
12660;SDS011;39039;51.802;5.710;2023-03-12T04:26:58;15.30;;;14.17;;
12660;SDS011;39039;51.802;5.710;2023-03-12T04:29:25;18.57;;;15.77;;
12660;SDS011;39039;51.802;5.710;2023-03-12T04:31:52;17.50;;;16.03;;
12660;SDS011;39039;51.802;5.710;2023-03-12T04:34:19;19.00;;;17.43;;
12660;SDS011;39039;51.802;5.710;2023-03-12T04:36:46;20.50;;;18.87;;
12660;SDS011;39039;51.802;5.710;2023-03-12T04:39:15;20.43;;;18.80;;
12660;SDS011;39039;51.802;5.710;2023-03-12T04:41:43;18.20;;;16.70;;
12660;SDS011;39039;51.802;5.710;2023-03-12T04:44:11;24.23;;;21.97;;
12660;SDS011;39039;51.802;5.710;2023-03-12T04:46:38;22.93;;;21.30;;
12660;SDS011;39039;51.802;5.710;2023-03-12T04:49:05;23.83;;;22.10;;
12660;SDS011;39039;51.802;5.710;2023-03-12T04:51:32;29.47;;;27.20;;
12660;SDS011;39039;51.802;5.710;2023-03-12T04:53:59;24.67;;;22.60;;
12660;SDS011;39039;51.802;5.710;2023-03-12T04:56:26;26.03;;;24.10;;
12660;SDS011;39039;51.802;5.710;2023-03-12T04:58:54;26.70;;;24.43;;
12660;SDS011;39039;51.802;5.710;2023-03-12T05:01:23;25.53;;;23.47;;
12660;SDS011;39039;51.802;5.710;2023-03-12T05:03:50;20.80;;;19.10;;
12660;SDS011;39039;51.802;5.710;2023-03-12T05:06:17;17.57;;;15.87;;
12660;SDS011;39039;51.802;5.710;2023-03-12T05:08:45;21.10;;;19.67;;
12660;SDS011;39039;51.802;5.710;2023-03-12T05:11:12;16.03;;;14.63;;
12660;SDS011;39039;51.802;5.710;2023-03-12T05:13:39;17.47;;;16.07;;
12660;SDS011;39039;51.802;5.710;2023-03-12T05:16:08;15.53;;;14.43;;
12660;SDS011;39039;51.802;5.710;2023-03-12T05:18:36;17.10;;;15.70;;
12660;SDS011;39039;51.802;5.710;2023-03-12T05:21:03;16.90;;;15.33;;
12660;SDS011;39039;51.802;5.710;2023-03-12T05:23:31;16.70;;;15.17;;
12660;SDS011;39039;51.802;5.710;2023-03-12T05:25:59;14.60;;;13.27;;
12660;SDS011;39039;51.802;5.710;2023-03-12T05:28:26;18.67;;;15.03;;
12660;SDS011;39039;51.802;5.710;2023-03-12T05:30:54;16.77;;;15.03;;
12660;SDS011;39039;51.802;5.710;2023-03-12T05:33:22;16.70;;;15.30;;
12660;SDS011;39039;51.802;5.710;2023-03-12T05:35:50;19.30;;;14.93;;
12660;SDS011;39039;51.802;5.710;2023-03-12T05:38:17;16.63;;;15.20;;
12660;SDS011;39039;51.802;5.710;2023-03-12T05:40:49;15.63;;;14.43;;
12660;SDS011;39039;51.802;5.710;2023-03-12T05:43:18;17.27;;;15.70;;
12660;SDS011;39039;51.802;5.710;2023-03-12T05:45:45;17.17;;;15.60;;
12660;SDS011;39039;51.802;5.710;2023-03-12T05:48:12;15.63;;;14.17;;
12660;SDS011;39039;51.802;5.710;2023-03-12T05:50:40;15.57;;;14.10;;
12660;SDS011;39039;51.802;5.710;2023-03-12T05:53:07;17.67;;;16.07;;
12660;SDS011;39039;51.802;5.710;2023-03-12T05:55:35;16.90;;;15.50;;
12660;SDS011;39039;51.802;5.710;2023-03-12T05:58:02;14.93;;;13.17;;
12660;SDS011;39039;51.802;5.710;2023-03-12T06:00:29;17.70;;;16.30;;
12660;SDS011;39039;51.802;5.710;2023-03-12T06:02:57;17.33;;;15.60;;
12660;SDS011;39039;51.802;5.710;2023-03-12T06:05:24;16.80;;;15.30;;
12660;SDS011;39039;51.802;5.710;2023-03-12T06:07:52;17.27;;;15.67;;
12660;SDS011;39039;51.802;5.710;2023-03-12T06:10:19;15.90;;;14.30;;
12660;SDS011;39039;51.802;5.710;2023-03-12T06:12:46;16.20;;;14.47;;
12660;SDS011;39039;51.802;5.710;2023-03-12T06:15:13;17.20;;;15.60;;
12660;SDS011;39039;51.802;5.710;2023-03-12T06:17:40;16.73;;;15.33;;
12660;SDS011;39039;51.802;5.710;2023-03-12T06:20:08;15.83;;;14.53;;
12660;SDS011;39039;51.802;5.710;2023-03-12T06:22:35;16.30;;;15.07;;
12660;SDS011;39039;51.802;5.710;2023-03-12T06:25:04;16.40;;;15.07;;
12660;SDS011;39039;51.802;5.710;2023-03-12T06:27:31;18.17;;;16.23;;
12660;SDS011;39039;51.802;5.710;2023-03-12T06:29:58;16.60;;;15.17;;
12660;SDS011;39039;51.802;5.710;2023-03-12T06:32:25;17.27;;;15.80;;
12660;SDS011;39039;51.802;5.710;2023-03-12T06:34:52;17.67;;;16.17;;
12660;SDS011;39039;51.802;5.710;2023-03-12T06:37:19;17.83;;;15.97;;
12660;SDS011;39039;51.802;5.710;2023-03-12T06:39:46;17.63;;;15.83;;
12660;SDS011;39039;51.802;5.710;2023-03-12T06:42:14;15.77;;;14.17;;
12660;SDS011;39039;51.802;5.710;2023-03-12T06:44:42;17.57;;;15.93;;
12660;SDS011;39039;51.802;5.710;2023-03-12T06:47:09;15.83;;;14.37;;
12660;SDS011;39039;51.802;5.710;2023-03-12T06:49:36;16.37;;;14.83;;
12660;SDS011;39039;51.802;5.710;2023-03-12T06:52:04;17.13;;;15.57;;
12660;SDS011;39039;51.802;5.710;2023-03-12T06:54:31;18.23;;;16.10;;
12660;SDS011;39039;51.802;5.710;2023-03-12T06:56:58;19.93;;;15.73;;
12660;SDS011;39039;51.802;5.710;2023-03-12T06:59:26;16.63;;;14.97;;
12660;SDS011;39039;51.802;5.710;2023-03-12T07:01:53;14.87;;;13.67;;
12660;SDS011;39039;51.802;5.710;2023-03-12T07:04:21;199.97;;;49.67;;
12660;SDS011;39039;51.802;5.710;2023-03-12T07:06:48;25.73;;;23.17;;
12660;SDS011;39039;51.802;5.710;2023-03-12T07:09:15;264.40;;;251.07;;
12660;SDS011;39039;51.802;5.710;2023-03-12T07:11:43;139.87;;;131.20;;
12660;SDS011;39039;51.802;5.710;2023-03-12T07:14:10;83.60;;;78.00;;
12660;SDS011;39039;51.802;5.710;2023-03-12T07:16:38;749.10;;;409.97;;
12660;SDS011;39039;51.802;5.710;2023-03-12T07:19:05;1999.90;;;999.90;;
12660;SDS011;39039;51.802;5.710;2023-03-12T07:21:32;1999.90;;;999.90;;
12660;SDS011;39039;51.802;5.710;2023-03-12T07:23:59;1999.90;;;999.90;;
12660;SDS011;39039;51.802;5.710;2023-03-12T07:26:30;1999.90;;;999.90;;
12660;SDS011;39039;51.802;5.710;2023-03-12T07:28:58;1999.90;;;999.90;;
12660;SDS011;39039;51.802;5.710;2023-03-12T07:31:25;1999.90;;;999.90;;
12660;SDS011;39039;51.802;5.710;2023-03-12T07:33:53;69.53;;;64.90;;
12660;SDS011;39039;51.802;5.710;2023-03-12T07:36:20;93.87;;;88.27;;
12660;SDS011;39039;51.802;5.710;2023-03-12T07:38:47;206.17;;;194.40;;
12660;SDS011;39039;51.802;5.710;2023-03-12T07:41:14;31.00;;;28.00;;
12660;SDS011;39039;51.802;5.710;2023-03-12T07:43:41;25.07;;;22.90;;
12660;SDS011;39039;51.802;5.710;2023-03-12T07:46:08;25.90;;;23.03;;
12660;SDS011;39039;51.802;5.710;2023-03-12T07:48:35;31.97;;;28.87;;
12660;SDS011;39039;51.802;5.710;2023-03-12T07:51:05;23.57;;;21.43;;
12660;SDS011;39039;51.802;5.710;2023-03-12T07:53:32;31.23;;;27.03;;
12660;SDS011;39039;51.802;5.710;2023-03-12T07:55:59;27.70;;;25.10;;
12660;SDS011;39039;51.802;5.710;2023-03-12T07:58:26;38.33;;;34.83;;
12660;SDS011;39039;51.802;5.710;2023-03-12T08:00:54;27.90;;;25.43;;
12660;SDS011;39039;51.802;5.710;2023-03-12T08:03:21;28.63;;;23.50;;
12660;SDS011;39039;51.802;5.710;2023-03-12T08:05:55;31.87;;;28.87;;
12660;SDS011;39039;51.802;5.710;2023-03-12T08:08:23;25.33;;;23.23;;
12660;SDS011;39039;51.802;5.710;2023-03-12T08:10:50;30.93;;;24.63;;
12660;SDS011;39039;51.802;5.710;2023-03-12T08:13:17;26.97;;;24.30;;
12660;SDS011;39039;51.802;5.710;2023-03-12T08:15:44;30.87;;;27.67;;
12660;SDS011;39039;51.802;5.710;2023-03-12T08:18:11;31.07;;;28.40;;
12660;SDS011;39039;51.802;5.710;2023-03-12T08:20:38;37.40;;;34.03;;
12660;SDS011;39039;51.802;5.710;2023-03-12T08:23:05;41.90;;;37.73;;
12660;SDS011;39039;51.802;5.710;2023-03-12T08:25:34;44.47;;;40.80;;
12660;SDS011;39039;51.802;5.710;2023-03-12T08:28:01;39.67;;;36.17;;
12660;SDS011;39039;51.802;5.710;2023-03-12T08:30:29;38.90;;;35.67;;
12660;SDS011;39039;51.802;5.710;2023-03-12T08:32:56;40.07;;;36.67;;
12660;SDS011;39039;51.802;5.710;2023-03-12T08:35:23;32.83;;;30.20;;
12660;SDS011;39039;51.802;5.710;2023-03-12T08:37:50;27.63;;;24.63;;
12660;SDS011;39039;51.802;5.710;2023-03-12T08:40:17;26.20;;;24.00;;
12660;SDS011;39039;51.802;5.710;2023-03-12T08:42:46;26.37;;;23.87;;
12660;SDS011;39039;51.802;5.710;2023-03-12T08:45:13;23.27;;;21.23;;
12660;SDS011;39039;51.802;5.710;2023-03-12T08:47:40;25.23;;;22.57;;
12660;SDS011;39039;51.802;5.710;2023-03-12T08:50:08;24.60;;;22.10;;
12660;SDS011;39039;51.802;5.710;2023-03-12T08:52:36;23.43;;;21.17;;
12660;SDS011;39039;51.802;5.710;2023-03-12T08:55:03;24.57;;;22.17;;
12660;SDS011;39039;51.802;5.710;2023-03-12T08:57:31;24.07;;;21.80;;
12660;SDS011;39039;51.802;5.710;2023-03-12T08:59:59;24.53;;;22.33;;
12660;SDS011;39039;51.802;5.710;2023-03-12T09:02:28;27.30;;;24.67;;
12660;SDS011;39039;51.802;5.710;2023-03-12T09:04:55;25.23;;;22.93;;
12660;SDS011;39039;51.802;5.710;2023-03-12T09:07:22;25.73;;;23.33;;
12660;SDS011;39039;51.802;5.710;2023-03-12T09:09:49;24.13;;;21.60;;
12660;SDS011;39039;51.802;5.710;2023-03-12T09:12:16;23.83;;;21.73;;
12660;SDS011;39039;51.802;5.710;2023-03-12T09:14:43;24.73;;;22.53;;
12660;SDS011;39039;51.802;5.710;2023-03-12T09:17:11;26.50;;;23.70;;
12660;SDS011;39039;51.802;5.710;2023-03-12T09:19:38;30.50;;;27.53;;
12660;SDS011;39039;51.802;5.710;2023-03-12T09:22:05;37.37;;;33.97;;
12660;SDS011;39039;51.802;5.710;2023-03-12T09:24:32;41.63;;;38.20;;
12660;SDS011;39039;51.802;5.710;2023-03-12T09:27:00;41.83;;;38.53;;
12660;SDS011;39039;51.802;5.710;2023-03-12T09:29:28;45.57;;;42.00;;
12660;SDS011;39039;51.802;5.710;2023-03-12T09:31:55;41.70;;;38.63;;
12660;SDS011;39039;51.802;5.710;2023-03-12T09:34:23;46.40;;;42.83;;
12660;SDS011;39039;51.802;5.710;2023-03-12T09:36:50;38.00;;;34.97;;
12660;SDS011;39039;51.802;5.710;2023-03-12T09:39:18;38.30;;;35.07;;
12660;SDS011;39039;51.802;5.710;2023-03-12T09:41:46;37.13;;;33.40;;
12660;SDS011;39039;51.802;5.710;2023-03-12T09:44:15;1413.43;;;741.37;;
12660;SDS011;39039;51.802;5.710;2023-03-12T09:46:45;170.40;;;159.70;;
12660;SDS011;39039;51.802;5.710;2023-03-12T09:49:15;275.63;;;259.90;;
12660;SDS011;39039;51.802;5.710;2023-03-12T09:51:46;178.63;;;165.47;;
12660;SDS011;39039;51.802;5.710;2023-03-12T09:54:19;1999.90;;;999.90;;
12660;SDS011;39039;51.802;5.710;2023-03-12T09:56:50;1999.90;;;999.90;;
12660;SDS011;39039;51.802;5.710;2023-03-12T09:59:18;1999.90;;;999.90;;
12660;SDS011;39039;51.802;5.710;2023-03-12T10:01:46;1999.90;;;999.90;;
12660;SDS011;39039;51.802;5.710;2023-03-12T10:04:19;1999.90;;;999.90;;
12660;SDS011;39039;51.802;5.710;2023-03-12T10:06:52;1999.90;;;999.90;;
12660;SDS011;39039;51.802;5.710;2023-03-12T10:09:28;1999.90;;;999.90;;
12660;SDS011;39039;51.802;5.710;2023-03-12T10:11:57;1999.90;;;999.90;;
12660;SDS011;39039;51.802;5.710;2023-03-12T10:14:37;1999.90;;;999.90;;
12660;SDS011;39039;51.802;5.710;2023-03-12T10:17:13;1999.90;;;999.90;;
12660;SDS011;39039;51.802;5.710;2023-03-12T10:20:00;1999.90;;;999.90;;
12660;SDS011;39039;51.802;5.710;2023-03-12T10:22:35;1999.90;;;999.90;;
12660;SDS011;39039;51.802;5.710;2023-03-12T10:25:12;1999.90;;;999.90;;
12660;SDS011;39039;51.802;5.710;2023-03-12T10:27:45;1999.90;;;999.90;;
12660;SDS011;39039;51.802;5.710;2023-03-12T10:30:15;1999.90;;;999.90;;
12660;SDS011;39039;51.802;5.710;2023-03-12T10:32:44;1999.90;;;999.90;;
12660;SDS011;39039;51.802;5.710;2023-03-12T10:35:13;1999.90;;;999.90;;
12660;SDS011;39039;51.802;5.710;2023-03-12T10:37:43;1999.90;;;999.90;;
12660;SDS011;39039;51.802;5.710;2023-03-12T10:40:12;1999.90;;;999.90;;
12660;SDS011;39039;51.802;5.710;2023-03-12T10:42:40;1999.90;;;999.90;;
12660;SDS011;39039;51.802;5.710;2023-03-12T10:45:13;1999.90;;;999.90;;
12660;SDS011;39039;51.802;5.710;2023-03-12T10:47:43;1999.90;;;999.90;;
12660;SDS011;39039;51.802;5.710;2023-03-12T10:50:15;1999.90;;;999.90;;
12660;SDS011;39039;51.802;5.710;2023-03-12T10:52:45;1999.90;;;999.90;;
12660;SDS011;39039;51.802;5.710;2023-03-12T10:55:18;1999.90;;;999.90;;
12660;SDS011;39039;51.802;5.710;2023-03-12T10:57:46;1999.90;;;999.90;;
12660;SDS011;39039;51.802;5.710;2023-03-12T11:00:16;1999.90;;;999.90;;
12660;SDS011;39039;51.802;5.710;2023-03-12T11:02:45;1999.90;;;999.90;;
12660;SDS011;39039;51.802;5.710;2023-03-12T11:05:20;1999.90;;;999.90;;
12660;SDS011;39039;51.802;5.710;2023-03-12T11:07:50;1999.90;;;999.90;;
12660;SDS011;39039;51.802;5.710;2023-03-12T11:10:18;1999.90;;;999.90;;
12660;SDS011;39039;51.802;5.710;2023-03-12T11:12:54;1999.90;;;999.90;;
12660;SDS011;39039;51.802;5.710;2023-03-12T11:15:22;1999.90;;;999.90;;
12660;SDS011;39039;51.802;5.710;2023-03-12T11:17:50;1999.90;;;999.90;;
12660;SDS011;39039;51.802;5.710;2023-03-12T11:20:23;1999.90;;;999.90;;
12660;SDS011;39039;51.802;5.710;2023-03-12T11:22:52;1999.90;;;999.90;;
12660;SDS011;39039;51.802;5.710;2023-03-12T11:25:20;1999.90;;;999.90;;
12660;SDS011;39039;51.802;5.710;2023-03-12T11:27:48;1999.90;;;999.90;;
12660;SDS011;39039;51.802;5.710;2023-03-12T11:30:18;1999.90;;;999.90;;
12660;SDS011;39039;51.802;5.710;2023-03-12T11:32:48;1999.90;;;999.90;;
12660;SDS011;39039;51.802;5.710;2023-03-12T11:35:16;1999.90;;;999.90;;
12660;SDS011;39039;51.802;5.710;2023-03-12T11:37:47;1999.90;;;999.90;;
12660;SDS011;39039;51.802;5.710;2023-03-12T11:40:23;1999.90;;;999.90;;
12660;SDS011;39039;51.802;5.710;2023-03-12T11:42:55;1999.90;;;999.90;;
12660;SDS011;39039;51.802;5.710;2023-03-12T11:45:44;1999.90;;;999.90;;
12660;SDS011;39039;51.802;5.710;2023-03-12T11:48:14;1999.90;;;999.90;;
12660;SDS011;39039;51.802;5.710;2023-03-12T11:50:49;1999.90;;;999.90;;
12660;SDS011;39039;51.802;5.710;2023-03-12T11:53:25;1999.90;;;999.90;;
12660;SDS011;39039;51.802;5.710;2023-03-12T11:56:02;1999.90;;;999.90;;
12660;SDS011;39039;51.802;5.710;2023-03-12T11:58:37;1999.90;;;999.90;;
12660;SDS011;39039;51.802;5.710;2023-03-12T12:01:09;1999.90;;;999.90;;
12660;SDS011;39039;51.802;5.710;2023-03-12T12:06:23;1999.90;;;999.90;;
12660;SDS011;39039;51.802;5.710;2023-03-12T12:08:55;1999.90;;;999.90;;
12660;SDS011;39039;51.802;5.710;2023-03-12T12:11:27;1999.90;;;999.90;;
12660;SDS011;39039;51.802;5.710;2023-03-12T12:14:09;1999.90;;;999.90;;
12660;SDS011;39039;51.802;5.710;2023-03-12T12:16:41;1999.90;;;999.90;;
12660;SDS011;39039;51.802;5.710;2023-03-12T12:19:28;1999.90;;;999.90;;
12660;SDS011;39039;51.802;5.710;2023-03-12T12:22:05;1999.90;;;999.90;;
12660;SDS011;39039;51.802;5.710;2023-03-12T12:24:45;1999.90;;;999.90;;
12660;SDS011;39039;51.802;5.710;2023-03-12T12:27:39;1999.90;;;999.90;;
12660;SDS011;39039;51.802;5.710;2023-03-12T12:30:12;1999.90;;;999.90;;
12660;SDS011;39039;51.802;5.710;2023-03-12T12:32:46;1999.90;;;999.90;;
12660;SDS011;39039;51.802;5.710;2023-03-12T12:35:21;1999.90;;;999.90;;
12660;SDS011;39039;51.802;5.710;2023-03-12T12:37:52;1999.90;;;999.90;;
12660;SDS011;39039;51.802;5.710;2023-03-12T12:40:22;1999.90;;;999.90;;
12660;SDS011;39039;51.802;5.710;2023-03-12T12:42:54;1999.90;;;999.90;;
12660;SDS011;39039;51.802;5.710;2023-03-12T12:45:22;1999.90;;;999.90;;
12660;SDS011;39039;51.802;5.710;2023-03-12T12:47:52;1999.90;;;999.90;;
12660;SDS011;39039;51.802;5.710;2023-03-12T12:50:21;1999.90;;;999.90;;
12660;SDS011;39039;51.802;5.710;2023-03-12T12:52:51;1999.90;;;999.90;;
12660;SDS011;39039;51.802;5.710;2023-03-12T12:55:20;1999.90;;;999.90;;
12660;SDS011;39039;51.802;5.710;2023-03-12T12:57:53;1999.90;;;999.90;;
12660;SDS011;39039;51.802;5.710;2023-03-12T13:03:11;1999.90;;;999.90;;
12660;SDS011;39039;51.802;5.710;2023-03-12T13:05:43;150.37;;;140.90;;
12660;SDS011;39039;51.802;5.710;2023-03-12T13:10:53;1999.90;;;999.90;;
12660;SDS011;39039;51.802;5.710;2023-03-12T13:13:23;1999.90;;;999.90;;
12660;SDS011;39039;51.802;5.710;2023-03-12T13:15:50;1999.90;;;999.90;;
12660;SDS011;39039;51.802;5.710;2023-03-12T13:18:38;1999.90;;;999.90;;
12660;SDS011;39039;51.802;5.710;2023-03-12T13:21:10;1999.90;;;999.90;;
12660;SDS011;39039;51.802;5.710;2023-03-12T13:23:46;1999.90;;;999.90;;
12660;SDS011;39039;51.802;5.710;2023-03-12T13:26:17;1999.90;;;999.90;;
12660;SDS011;39039;51.802;5.710;2023-03-12T13:28:58;1999.90;;;999.90;;
12660;SDS011;39039;51.802;5.710;2023-03-12T13:31:39;1999.90;;;999.90;;
12660;SDS011;39039;51.802;5.710;2023-03-12T13:37:16;1999.90;;;999.90;;
12660;SDS011;39039;51.802;5.710;2023-03-12T13:39:45;1999.90;;;999.90;;
12660;SDS011;39039;51.802;5.710;2023-03-12T13:42:26;1999.90;;;999.90;;
12660;SDS011;39039;51.802;5.710;2023-03-12T13:45:23;1999.90;;;999.90;;
12660;SDS011;39039;51.802;5.710;2023-03-12T13:47:54;1999.90;;;999.90;;
12660;SDS011;39039;51.802;5.710;2023-03-12T13:50:25;1999.90;;;999.90;;
12660;SDS011;39039;51.802;5.710;2023-03-12T13:52:59;1999.90;;;999.90;;
12660;SDS011;39039;51.802;5.710;2023-03-12T13:55:30;1999.90;;;999.90;;
12660;SDS011;39039;51.802;5.710;2023-03-12T13:57:58;1999.90;;;999.90;;
12660;SDS011;39039;51.802;5.710;2023-03-12T14:00:35;1999.90;;;999.90;;
12660;SDS011;39039;51.802;5.710;2023-03-12T14:03:08;1999.90;;;999.90;;
12660;SDS011;39039;51.802;5.710;2023-03-12T14:05:46;1999.90;;;999.90;;
12660;SDS011;39039;51.802;5.710;2023-03-12T14:08:20;1999.90;;;999.90;;
12660;SDS011;39039;51.802;5.710;2023-03-12T14:11:02;1999.90;;;999.90;;
12660;SDS011;39039;51.802;5.710;2023-03-12T14:16:45;1999.90;;;999.90;;
12660;SDS011;39039;51.802;5.710;2023-03-12T14:19:15;1999.90;;;999.90;;
12660;SDS011;39039;51.802;5.710;2023-03-12T14:21:46;1999.90;;;999.90;;
12660;SDS011;39039;51.802;5.710;2023-03-12T14:24:19;1999.90;;;999.90;;
12660;SDS011;39039;51.802;5.710;2023-03-12T14:26:49;1999.90;;;999.90;;
12660;SDS011;39039;51.802;5.710;2023-03-12T14:29:18;1999.90;;;999.90;;
12660;SDS011;39039;51.802;5.710;2023-03-12T14:31:46;1999.90;;;999.90;;
12660;SDS011;39039;51.802;5.710;2023-03-12T14:34:15;1999.90;;;999.90;;
12660;SDS011;39039;51.802;5.710;2023-03-12T14:36:47;1999.90;;;999.90;;
12660;SDS011;39039;51.802;5.710;2023-03-12T14:39:22;1999.90;;;999.90;;